Southern California Logo

Westlake, CA Single Family Real Estate Listings

133 Total Real Estate Listings * Click on table heading to sort
Date Posted Property Type Style Address Price Living Area Lot Size Price/Sq Ft.
2018-02-18 Single Family 1677 Oldcastle Place Westlake, CA 91361 $900,000 1,879 sq. ft. 6,534 sq. ft. $479
2018-02-18 Single Family Mediterranean 3450 Three Springs Drive Westlake, CA 91361 $1,150,000 3,107 sq. ft. 10,454 sq. ft. $370
2018-02-18 Single Family 2183 Kinross Court Westlake, CA 91361 $1,350,000 2,823 sq. ft. 18,295 sq. ft. $478
2018-02-15 Single Family 5771 Tanner Ridge Avenue Westlake, CA 91362 $749,000 1,819 sq. ft. 871 sq. ft. $412
2018-02-14 Single Family 2396 Stafford Road Westlake, CA 91361 $3,495,000 5,585 sq. ft. 13,504 sq. ft. $626
2018-02-14 Single Family 1218 Willowgreen Court Westlake, CA 91361 $1,098,000 2,305 sq. ft. 8,276 sq. ft. $476
2018-02-13 Single Family Traditional 1391 Southwind Circle Westlake, CA 91361 $1,825,000 2,359 sq. ft. 5,227 sq. ft. $774
2018-02-12 Single Family 2351 Topsail Circle Westlake, CA 91361 $1,350,000 2,161 sq. ft. 8,712 sq. ft. $625
2018-02-12 Single Family Traditional 3981 Skelton Canyon Circle Westlake, CA 91362 $1,995,000 4,249 sq. ft. 23,522 sq. ft. $470
2018-02-12 Single Family Mediterranean; Spanish 818 Rim Crest Drive Westlake, CA 91361 $1,298,000 2,915 sq. ft. 16,117 sq. ft. $445
2018-02-10 Single Family Traditional 1428 Cheswick Place Westlake, CA 91361 $879,000 1,879 sq. ft. 6,534 sq. ft. $468
2018-02-09 Single Family 31935 Watergate Court Westlake, CA 91361 $1,070,000 2,371 sq. ft. 8,712 sq. ft. $451
2018-02-09 Single Family Spanish 1673 Plum Hollow Circle Westlake, CA 91362 $1,085,000 2,458 sq. ft. 5,227 sq. ft. $441
2018-02-08 Single Family Mediterranean; Modern 1598 Heather Oaks Lane Westlake, CA 91361 $1,770,000 3,817 sq. ft. 17,424 sq. ft. $464
2018-02-08 Single Family Traditional 940 Ranch House Road Westlake, CA 91361 $1,229,900 3,128 sq. ft. 7,841 sq. ft. $393
2018-02-07 Single Family Contemporary; Mediterranean 4289 Coachman Circle Westlake, CA 91362 $2,494,000 4,536 sq. ft. 57,935 sq. ft. $550
2018-02-07 Single Family Contemporary; Spanish 32417 Lake Pleasant Drive Westlake, CA 91361 $1,700,000 2,946 sq. ft. 16,117 sq. ft. $577
2018-02-07 Single Family Southwestern 3224 Blue Ridge Court Westlake, CA 91362 $949,500 2,078 sq. ft. 7,405 sq. ft. $457
2018-02-06 Single Family 4421 Henley Court Westlake, CA 91361 $1,000,000 2,371 sq. ft. 7,405 sq. ft. $422
2018-02-06 Single Family 3251 Blue Ridge Court Westlake, CA 91362 $899,000 2,490 sq. ft. 7,405 sq. ft. $361
2018-02-06 Single Family Mediterranean 2253 Kirsten Lee Drive Westlake, CA 91361 $1,700,000 4,258 sq. ft. 25,265 sq. ft. $399
2018-02-03 Single Family 1170 Westlake Boulevard Westlake, CA 91361 $649,000 1,829 sq. ft. 3,920 sq. ft. $355
2018-02-02 Single Family Traditional 2130 Basswood Court Westlake, CA 91361 $1,050,000 2,711 sq. ft. 7,405 sq. ft. $387
2018-02-02 Single Family 300 Manzanita Lane Westlake, CA 91361 $869,000 2,819 sq. ft. 13,939 sq. ft. $308
2018-02-01 Single Family Cape Cod 31005 Minute Man Way Westlake, CA 91361 $649,000 1,407 sq. ft. 890,366 sq. ft. $461
2018-02-01 Single Family 2654 Yellowwood Drive Westlake, CA 91361 $1,470,000 3,719 sq. ft. 11,761 sq. ft. $395
2018-02-01 Single Family 30965 Minute Man Way Westlake, CA 91361 $639,000 1,610 sq. ft. 890,366 sq. ft. $397
2018-02-01 Single Family Traditional 3219 Bayshore Drive Westlake, CA 91361 $994,990 2,545 sq. ft. 103,673 sq. ft. $391
2018-02-01 Single Family 1394 Redsail Circle Westlake, CA 91361 $1,948,000 3,093 sq. ft. 5,227 sq. ft. $630
2018-01-30 Single Family Traditional 1380 Windy Mountain Avenue Westlake, CA 91362 $2,350,000 5,427 sq. ft. 21,780 sq. ft. $433
2018-01-30 Single Family 1763 Red Rock Court Westlake, CA 91362 $1,899,000 3,693 sq. ft. 17,860 sq. ft. $514
2018-01-29 Single Family 1178 Westlake Boulevard Westlake, CA 91361 $729,950 1,750 sq. ft. 3,920 sq. ft. $417
2018-01-29 Single Family 738 Coral Ridge Court Westlake, CA 91361 $1,670,000 3,501 sq. ft. 16,553 sq. ft. $477
2018-01-29 Single Family 1150 Westlake Boulevard Westlake, CA 91361 $839,000 1,936 sq. ft. 3,920 sq. ft. $433
2018-01-27 Single Family Mediterranean; Spanish 31673 Foxfield Drive Westlake, CA 91361 $2,288,000 4,369 sq. ft. 29,185 sq. ft. $524
2018-01-25 Single Family 5463 Clermont Court Westlake, CA 91362 $739,900 1,502 sq. ft. 2,178 sq. ft. $493
2018-01-24 Single Family Traditional 1718 Shetland Place Westlake, CA 91362 $2,495,000 5,413 sq. ft. 20,909 sq. ft. $461
2018-01-23 Single Family Contemporary 1631 Wicklow Court Westlake, CA 91361 $1,495,000 2,846 sq. ft. 17,424 sq. ft. $525
2018-01-23 Single Family Traditional 5638 Roundtree Place Westlake, CA 91362 $899,500 2,372 sq. ft. 1,307 sq. ft. $379
2018-01-23 Single Family Traditional 4039 Mariner Circle Westlake, CA 91361 $1,725,000 2,551 sq. ft. 5,227 sq. ft. $676
2018-01-23 Single Family Ranch 929 Triunfo Canyon Road Westlake, CA 91361 $960,000 1,883 sq. ft. 17,860 sq. ft. $510
2018-01-23 Single Family French 1064 Lakeview Canyon Road Westlake, CA 91362 $6,880,000 12,167 sq. ft. 132,422 sq. ft. $565
2018-01-23 Single Family Contemporary; Modern; Ranch; Traditional 5648 Golden Knoll Court Westlake, CA 91362 $1,289,900 3,183 sq. ft. 27,007 sq. ft. $405
2018-01-23 Single Family Tudor 4196 Summit Ridge Court Westlake, CA 91362 $1,750,000 3,585 sq. ft. 124,582 sq. ft. $488
2018-01-23 Single Family Traditional 3996 Skelton Canyon Circle Westlake, CA 91362 $2,295,000 4,116 sq. ft. 35,719 sq. ft. $558
2018-01-22 Single Family Mediterranean 1118 Country Valley Road Westlake, CA 91362 $4,395,000 6,869 sq. ft. 95,396 sq. ft. $640
2018-01-22 Single Family French Country 4172 Oak Pl Drive Westlake, CA 91362 $2,650,000 7,114 sq. ft. 39,204 sq. ft. $373
2018-01-19 Single Family 32116 Beachlake Lane Westlake, CA 91361 $849,000 1,947 sq. ft. 3,049 sq. ft. $436
2018-01-17 Single Family Mediterranean 754 Cedar Point Place Westlake, CA 91362 $999,999 2,463 sq. ft. 7,405 sq. ft. $406
2018-01-17 Single Family Traditional 1488 Pathfinder Avenue Westlake, CA 91362 $2,725,000 5,712 sq. ft. 20,038 sq. ft. $477
2018-01-16 Single Family Spanish 1777 Saint Andrews Place Westlake, CA 91362 $1,450,000 3,526 sq. ft. 4,792 sq. ft. $411
2018-01-16 Single Family 3802 Charthouse Circle Westlake, CA 91361 $2,489,000 3,900 sq. ft. 6,970 sq. ft. $638
2018-01-16 Single Family 4658 Tam Oshanter Drive Westlake, CA 91362 $1,249,000 2,672 sq. ft. 5,663 sq. ft. $467
2018-01-16 Single Family French 3970 Victoria Lane Westlake, CA 91362 $85,000,000 50,255 sq. ft. 1,452,290 sq. ft. $1,691
2018-01-16 Single Family 32485 Fastwater Court Westlake, CA 91361 $1,429,000 3,500 sq. ft. 12,197 sq. ft. $408
2018-01-15 Single Family Contemporary; Spanish; Traditional 30821 Overfall Drive Westlake, CA 91362 $769,000 1,673 sq. ft. 8,712 sq. ft. $460
2018-01-15 Single Family 2186 Marshbrook Road Westlake, CA 91361 $4,500,000 10,090 sq. ft. 41,382 sq. ft. $446
2018-01-12 Single Family Mediterranean 2063 Glastonbury Road Westlake, CA 91361 $1,283,000 2,630 sq. ft. 11,761 sq. ft. $488
2018-01-10 Single Family 1230 Westlake Boulevard Westlake, CA 91361 $699,900 1,636 sq. ft. 3,920 sq. ft. $428
2018-01-09 Single Family 3411 Woodburn Avenue Westlake, CA 91361 $4,200,000 7,977 sq. ft. 165,092 sq. ft. $527
2018-01-09 Single Family Spanish 4100 Valley Spring Drive Westlake, CA 91362 $2,395,000 4,726 sq. ft. 28,314 sq. ft. $507
2018-01-09 Single Family Mediterranean 4774 Golf Course Drive Westlake, CA 91362 $3,895,000 10,007 sq. ft. 89,734 sq. ft. $389
2018-01-08 Single Family 31702 Bainbrook Court Westlake, CA 91361 $1,099,000 2,412 sq. ft. 6,970 sq. ft. $456
2018-01-08 Single Family 3260 Sawtooth Court Westlake, CA 91362 $949,900 2,781 sq. ft. 6,970 sq. ft. $342
2018-01-06 Single Family 104 Merry Oak Lane Westlake, CA 91361 $429,000 1,536 sq. ft. 3,920 sq. ft. $279
2018-01-05 Single Family 28 Nottingham Road Westlake, CA 91361 $490,000 2,248 sq. ft. 7,405 sq. ft. $218
2018-01-05 Single Family 940 Candlecrest Drive Westlake, CA 91362 $8,299,000 15,734 sq. ft. 101,495 sq. ft. $527
2018-01-04 Single Family Other 473 Lower Lake Road Westlake, CA 91361 $9,995,000 130,680 sq. ft.
2018-01-03 Single Family Contemporary; Traditional 1335 Heritage Place Westlake, CA 91362 $2,689,000 7,333 sq. ft. 44,867 sq. ft. $367
2018-01-02 Single Family Cape Cod 4188 Cresthaven Drive Westlake, CA 91362 $3,199,900 5,429 sq. ft. 23,958 sq. ft. $589
2018-01-02 Single Family Contemporary 1176 Westlake Boulevard Westlake, CA 91361 $624,999 1,750 sq. ft. 3,920 sq. ft. $357
2018-01-01 Single Family 1707 Shetland Place Westlake, CA 91362 $1,699,000 3,990 sq. ft. 20,038 sq. ft. $426
2017-12-31 Single Family 1625 Crown Ridge Court Westlake, CA 91362 $4,500,000 13,000 sq. ft. 87,120 sq. ft. $346
2017-12-27 Single Family 31717 Bainbrook Court Westlake, CA 91361 $959,000 2,700 sq. ft. 9,583 sq. ft. $355
2017-12-26 Single Family 4034 Whitesail Circle Westlake, CA 91361 $1,725,000 1,970 sq. ft. 5,227 sq. ft. $876
2017-12-23 Single Family Contemporary 1226 Kirkford Way Westlake, CA 91361 $510,000 1,020 sq. ft. 3,049 sq. ft. $500
2017-12-21 Single Family 1385 Bridgegate Street Westlake, CA 91361 $3,195,000 6,000 sq. ft. 132,422 sq. ft. $532
2017-12-18 Single Family Mediterranean 5053 Royal Vista Court Westlake, CA 91362 $3,995,000 7,177 sq. ft. 0 sq. ft. $557
2017-12-15 Single Family Spanish 4301 Beaucroft Court Westlake, CA 91361 $910,000 2,393 sq. ft. 6,970 sq. ft. $380
2017-12-06 Single Family Cape Cod 1752 Upper Ranch Road Westlake, CA 91362 $2,595,000 4,740 sq. ft. 20,473 sq. ft. $547
2017-12-04 Single Family Contemporary; Modern 31646 Foxfield Drive Westlake, CA 91361 $2,990,000 6,067 sq. ft. 23,958 sq. ft. $493
2017-11-30 Single Family Traditional 30929 Minute Man Way Westlake, CA 91361 $609,000 1,407 sq. ft. 890,366 sq. ft. $433
2017-11-28 Single Family 7 Sherwood Drive Westlake, CA 91361 $499,900 1,456 sq. ft. 3,920 sq. ft. $343
2017-11-22 Single Family Architectural; Colonial; Traditional 946 Stafford Road Westlake, CA 91361 $3,999,500 6,518 sq. ft. 26,572 sq. ft. $614
2017-11-20 Single Family 1781 Royal St George Drive Westlake, CA 91362 $1,449,000 2,672 sq. ft. 5,227 sq. ft. $542
2017-11-17 Single Family 2705 Elderoak Road Westlake, CA 91361 $7,995,000 10,188 sq. ft. 81,022 sq. ft. $785
2017-11-13 Single Family Traditional 5579 Grey Feather Court Westlake, CA 91362 $2,050,000 5,486 sq. ft. 20,473 sq. ft. $374
2017-11-13 Single Family Traditional 2518 Kirsten Lee Drive Westlake, CA 91361 $1,410,000 3,719 sq. ft. 14,810 sq. ft. $379
2017-11-10 Single Family Traditional 1740 Larkfield Avenue Westlake, CA 91362 $1,699,000 3,639 sq. ft. 20,038 sq. ft. $467
2017-11-10 Single Family Modern 1077 Westlake Blvd Westlake, CA 90265 $6,299,950 7,980 sq. ft. 288,803 sq. ft. $789
2017-11-09 Single Family Mediterranean 1403 Kingsboro Court Westlake, CA 91362 $3,195,000 6,077 sq. ft. 72,745 sq. ft. $526
2017-11-08 Single Family Traditional 1345 Southwind Circle Westlake, CA 91361 $1,799,000 2,785 sq. ft. 5,227 sq. ft. $646
2017-11-08 Single Family Traditional 452 Via Colinas Westlake, CA 91362 $599,888 1,332 sq. ft. 871 sq. ft. $450
2017-11-06 Single Family Modern 242 Via Colinas Westlake, CA 91362 $556,000 1,251 sq. ft. 871 sq. ft. $444
2017-11-06 Single Family Traditional 31716 Kentfield Court Westlake, CA 91361 $949,000 2,312 sq. ft. 6,534 sq. ft. $410
2017-11-03 Single Family Contemporary; Modern; Ranch 32039 Canterhill Place Westlake, CA 91361 $2,189,900 3,034 sq. ft. 16,117 sq. ft. $722
2017-11-01 Single Family Mid Century 103 Lake Sherwood Drive Westlake, CA 91361 $1,399,000 1,510 sq. ft. 9,583 sq. ft. $926
2017-10-30 Single Family Traditional 32214 Oakshore Drive Westlake, CA 91361 $3,600,000 3,762 sq. ft. 6,970 sq. ft. $957
2017-10-27 Single Family Traditional 4926 Coyote Wells Circle Westlake, CA 91362 $1,299,000 3,346 sq. ft. 10,454 sq. ft. $388
2017-10-26 Single Family Contemporary 1176 Westlake Boulevard Westlake, CA 91361 $669,999 2,013 sq. ft. 3,920 sq. ft. $333
2017-10-25 Single Family Ranch 531 Country Valley Road Westlake, CA 91362 $3,150,000 7,144 sq. ft. 73,181 sq. ft. $441
2017-10-24 Single Family 1662 Hawksway Court Westlake, CA 91361 $2,199,000 4,444 sq. ft. 15,246 sq. ft. $495
2017-10-19 Single Family Spanish 2565 Kirsten Lee Drive Westlake, CA 91361 $1,425,000 3,719 sq. ft. 12,632 sq. ft. $383
2017-10-13 Single Family Cape Cod 224 Stafford Road Westlake, CA 91361 $10,750,000 10,700 sq. ft. 52,272 sq. ft. $1,005
2017-10-12 Single Family Mediterranean 518 Lakeview Canyon Road Westlake, CA 91362 $3,490,000 7,498 sq. ft. 56,628 sq. ft. $465
2017-10-10 Single Family Contemporary 847 Sunstone Street Westlake, CA 91362 $729,000 2,057 sq. ft. 1,307 sq. ft. $354
2017-10-06 Single Family 0 Giles Road Westlake, CA 91361 $7,875,000 7,500 sq. ft. 52,708 sq. ft. $1,050
2017-10-02 Single Family 32610 Bowman Knoll Drive Westlake, CA 91361 $1,388,000 3,204 sq. ft. 11,761 sq. ft. $433
2017-09-30 Single Family Modern; Ranch 146 Sherwood Drive Westlake, CA 91361 $619,000 1,384 sq. ft. 10,454 sq. ft. $447
2017-09-29 Single Family Spanish 4512 Sevenoaks Court Westlake, CA 91361 $1,025,000 2,372 sq. ft. 8,276 sq. ft. $432
2017-09-29 Single Family French Country; Mediterranean; Spanish; Tuscan 1880 Collingswood Court Westlake, CA 91362 $4,550,000 9,136 sq. ft. 106,286 sq. ft. $498
2017-09-29 Single Family Mediterranean 4193 Dan Wood Drive Westlake, CA 91362 $1,279,000 2,572 sq. ft. 1,742 sq. ft. $497
2017-09-22 Single Family 1233 Woodland Grove Court Westlake, CA 91362 $11,900,000 14,000 sq. ft. 191,228 sq. ft. $850
2017-09-20 Single Family 2454 Swanfield Court Westlake, CA 91361 $1,599,000 2,835 sq. ft. 1,307 sq. ft. $564
2017-09-20 Single Family Contemporary; Tuscan 988 Country Valley Road Westlake, CA 91362 $4,295,000 7,930 sq. ft. 49,658 sq. ft. $542
2017-09-19 Single Family 279 Garden Drive Westlake, CA 91361 $4,795,000 5,590 sq. ft. 21,780 sq. ft. $858
2017-09-19 Single Family 5032 Hunter Valley Lane Westlake, CA 91362 $2,900,000 7,087 sq. ft. 44,867 sq. ft. $409
2017-09-15 Single Family Mediterranean; Spanish 4721 Canterbury Street Westlake, CA 91362 $1,385,000 3,051 sq. ft. 18,731 sq. ft. $454
2017-09-14 Single Family English; Traditional Westlake, CA $1,049,000 2,824 sq. ft. 8,276 sq. ft. $371
2017-09-12 Single Family Mediterranean 4395 Rayburn Street Westlake, CA 91362 $3,499,950 7,529 sq. ft. 104,980 sq. ft. $465
2017-09-05 Single Family 991 Vista Ridge Lane Westlake, CA 91362 $3,795,000 8,557 sq. ft. 82,764 sq. ft. $443
2017-08-30 Single Family Traditional 2015 Glastonbury Road Westlake, CA 91361 $1,199,000 3,106 sq. ft. 10,454 sq. ft. $386
2017-08-01 Single Family Traditional 3828 Charthouse Circle Westlake, CA 91361 $2,659,000 2,838 sq. ft. 10,890 sq. ft. $937
2017-07-20 Single Family 4546 Rayburn Street Westlake, CA 91362 $1,265,000 3,096 sq. ft. 6,534 sq. ft. $409
2017-07-14 Single Family Mediterranean 3906 Fairbreeze Circle Westlake, CA 91361 $3,225,000 4,000 sq. ft. 6,098 sq. ft. $806
2017-06-12 Single Family 32573 Fallview Road Westlake, CA 91361 $1,249,000 3,336 sq. ft. 8,712 sq. ft. $374
2017-05-31 Single Family Mediterranean; Spanish; Tuscan; Villa 2803 Hemingsford Way Westlake, CA 91361 $4,795,000 7,806 sq. ft. 22,216 sq. ft. $614
2017-04-18 Single Family Mediterranean 5592 Little Fawn Court Westlake, CA 91362 $1,988,000 4,170 sq. ft. 20,473 sq. ft. $477
2017-04-18 Single Family Traditional 2267 Westshore Lane Westlake, CA 91361 $1,769,000 2,051 sq. ft. 8,276 sq. ft. $863
2017-03-31 Single Family 177 Queens Garden Drive Westlake, CA 91361 $3,395,000 5,044 sq. ft. 34,412 sq. ft. $673
2017-03-08 Single Family Mediterranean 774 Lakeview Canyon Road Westlake, CA 91362 $3,600,000 7,484 sq. ft. 141,134 sq. ft. $481
2016-02-29 Single Family Mediterranean 955 Vista Ridge Lane Westlake, CA 91362 $9,990,000 15,835 sq. ft. 187,308 sq. ft. $631
2016-01-11 Single Family Mediterranean 3855 Brunston Court Westlake, CA 91362 $3,999,950 9,627 sq. ft. 407,722 sq. ft. $415